createdAt,value
2022-08-05T05:33:23.466Z,23.30
2022-08-05T05:36:25.449Z,23.50
2022-08-05T05:39:34.585Z,23.60
2022-08-05T05:42:37.840Z,23.80
2022-08-05T05:45:39.591Z,24.20
2022-08-05T05:48:50.260Z,25.10
2022-08-05T05:51:53.500Z,26.40
2022-08-05T05:54:55.480Z,28.00
2022-08-05T05:57:57.234Z,29.80
2022-08-05T06:01:12.682Z,30.80
2022-08-05T06:04:15.303Z,30.70
2022-08-05T06:07:17.139Z,30.40
2022-08-05T06:10:24.397Z,30.60
2022-08-05T06:50:01.385Z,26.10
2022-08-05T06:53:11.254Z,27.10
2022-08-05T06:56:26.048Z,29.70
2022-08-05T06:59:28.654Z,31.90
2022-08-05T07:02:44.400Z,33.20
2022-08-05T07:05:46.425Z,33.00
2022-08-05T07:08:54.699Z,33.10
2022-08-05T07:11:56.887Z,33.70
2022-08-05T07:15:34.399Z,33.40
2022-08-05T07:18:45.035Z,32.00
2022-08-05T07:22:00.275Z,32.40
2022-08-05T07:25:23.417Z,33.10
2022-08-05T07:28:26.294Z,33.20
2022-08-05T07:31:40.814Z,32.60
2022-08-05T07:34:49.667Z,31.70
2022-08-05T07:37:59.735Z,32.50
2022-08-05T07:42:07.246Z,34.40
2022-08-05T07:44:26.365Z,36.10
2022-08-05T07:47:39.711Z,35.60
2022-08-05T07:50:44.422Z,36.70
2022-08-05T07:53:49.898Z,36.20
2022-08-05T07:57:02.295Z,37.50
2022-08-05T08:00:15.018Z,38.00
2022-08-05T08:03:16.998Z,37.80
2022-08-05T08:06:23.459Z,37.90
2022-08-05T08:09:29.910Z,38.00
2022-08-05T08:12:48.426Z,37.60
2022-08-05T08:16:43.023Z,36.30
2022-08-05T08:20:10.291Z,35.70
2022-08-05T08:22:35.017Z,34.30
2022-08-05T08:25:59.105Z,33.40
2022-08-05T08:29:21.636Z,33.40
2022-08-05T08:32:27.760Z,33.50
2022-08-05T08:35:35.222Z,34.60
2022-08-05T08:38:43.391Z,36.40
2022-08-05T08:42:00.201Z,35.90
2022-08-05T08:45:19.798Z,36.00
2022-08-05T08:49:02.443Z,36.40
2022-08-05T08:52:03.390Z,35.30
2022-08-05T08:55:19.301Z,36.30
2022-08-05T08:58:37.660Z,36.50
2022-08-05T09:01:47.077Z,37.20
2022-08-05T09:05:17.856Z,36.50
2022-08-05T09:08:20.197Z,36.80
2022-08-05T09:11:52.731Z,38.20
2022-08-05T09:14:58.424Z,36.90
2022-08-05T09:18:08.942Z,36.70
2022-08-05T09:21:11.538Z,37.50
2022-08-05T09:24:13.732Z,37.20
2022-08-05T09:28:04.505Z,37.10
2022-08-05T09:30:58.881Z,37.40
2022-08-05T09:34:05.322Z,36.60
2022-08-05T09:37:18.192Z,36.70
2022-08-05T09:40:51.743Z,37.10
2022-08-05T09:43:55.037Z,37.70
2022-08-05T09:47:10.416Z,37.90
2022-08-05T09:50:38.021Z,38.40
2022-08-05T09:53:53.929Z,38.10
2022-08-05T09:57:01.118Z,36.50
2022-08-05T10:00:12.173Z,38.20
2022-08-05T10:03:15.658Z,39.20
2022-08-05T10:06:20.720Z,40.10
2022-08-05T10:09:28.384Z,41.00
2022-08-05T10:12:49.603Z,40.70
2022-08-05T10:15:52.133Z,39.80
2022-08-05T10:18:55.488Z,39.10
2022-08-05T10:21:59.196Z,38.50
2022-08-05T10:25:01.312Z,38.20
2022-08-05T10:28:16.818Z,37.10
2022-08-05T10:32:49.582Z,38.20
2022-08-05T10:34:41.229Z,39.10
2022-08-05T10:37:44.938Z,39.70
2022-08-05T10:41:07.685Z,40.10
2022-08-05T10:44:13.321Z,38.80
2022-08-05T10:47:26.788Z,38.80
2022-08-05T10:50:36.589Z,38.50
2022-08-05T10:53:53.143Z,37.80
2022-08-05T10:56:57.222Z,38.50
2022-08-05T11:00:20.094Z,38.20
2022-08-05T11:03:26.277Z,37.90
2022-08-05T11:06:30.892Z,38.90
2022-08-05T11:10:03.992Z,38.00
2022-08-05T11:13:39.614Z,37.40
2022-08-05T11:18:00.179Z,37.20
2022-08-05T11:20:56.619Z,37.80
2022-08-05T11:24:29.848Z,38.70
2022-08-05T11:27:50.768Z,37.10
2022-08-05T11:30:58.593Z,36.50
2022-08-05T11:34:02.823Z,36.50
2022-08-05T11:38:14.270Z,37.00
2022-08-05T11:41:36.838Z,37.50
2022-08-05T11:44:53.447Z,37.60
2022-08-05T11:47:57.082Z,36.90
2022-08-05T11:51:01.298Z,36.20
2022-08-05T11:54:03.168Z,36.30
2022-08-05T11:57:07.543Z,35.40
2022-08-05T12:00:31.883Z,34.80
2022-08-05T12:03:55.802Z,34.50
2022-08-05T12:07:01.074Z,34.50
2022-08-05T12:10:11.479Z,34.20
2022-08-05T12:13:27.959Z,33.50
2022-08-05T12:16:39.247Z,33.40
2022-08-05T12:20:26.939Z,32.70
2022-08-05T12:23:10.172Z,33.30
2022-08-05T12:26:11.883Z,34.00
2022-08-05T12:29:24.182Z,33.90
2022-08-05T12:32:26.100Z,34.20
2022-08-05T12:35:39.643Z,33.60
2022-08-05T12:38:42.159Z,33.70
2022-08-05T12:41:45.608Z,33.60
2022-08-05T12:44:48.232Z,33.80
2022-08-05T12:48:01.600Z,33.40
2022-08-05T12:52:10.760Z,33.70
2022-08-05T12:54:40.972Z,33.90
2022-08-05T12:58:38.913Z,33.90
2022-08-05T13:02:01.084Z,33.50
2022-08-05T13:04:29.986Z,33.10
2022-08-05T13:07:58.032Z,32.30
2022-08-05T13:11:01.084Z,32.70
2022-08-05T13:14:06.378Z,33.20
2022-08-05T13:17:20.619Z,33.30
2022-08-05T13:20:35.274Z,32.70
2022-08-05T13:23:50.984Z,32.50
2022-08-05T13:26:54.027Z,32.70
2022-08-05T13:29:59.576Z,32.50
2022-08-05T13:34:25.027Z,32.70
2022-08-05T13:36:39.830Z,32.90
2022-08-05T13:40:16.064Z,32.40
2022-08-05T13:43:03.584Z,32.10
2022-08-05T13:46:14.401Z,32.10
2022-08-05T13:49:16.565Z,32.70
2022-08-05T13:52:29.063Z,32.40
2022-08-05T13:55:40.802Z,32.20
2022-08-05T13:58:43.866Z,31.60
2022-08-05T14:01:58.768Z,31.40
2022-08-05T14:05:19.398Z,30.80
2022-08-05T14:08:32.574Z,31.00
2022-08-05T14:12:00.445Z,30.90
2022-08-05T14:15:00.867Z,31.20
2022-08-05T14:18:14.858Z,31.10
2022-08-05T14:22:08.142Z,30.80
2022-08-05T14:24:42.532Z,30.80
2022-08-05T14:27:50.841Z,30.50
2022-08-05T14:30:52.550Z,30.40
2022-08-05T14:33:59.206Z,30.20
2022-08-05T14:37:01.649Z,30.40
2022-08-05T14:40:03.856Z,30.50
2022-08-05T14:43:05.979Z,30.40
2022-08-05T14:46:12.756Z,30.40
2022-08-05T14:49:14.508Z,30.60
2022-08-05T14:52:36.338Z,30.60
2022-08-05T14:55:39.812Z,30.20
2022-08-05T14:58:47.632Z,29.80
2022-08-05T15:01:54.785Z,29.60
2022-08-05T15:04:58.386Z,29.40
2022-08-05T15:08:12.106Z,29.10
2022-08-05T15:11:18.665Z,29.30
2022-08-05T15:14:34.457Z,29.40
2022-08-05T15:17:46.920Z,29.50
2022-08-05T15:20:49.573Z,29.50
2022-08-05T15:23:51.272Z,28.90
2022-08-05T15:26:53.443Z,28.60
2022-08-05T15:29:57.692Z,28.50
2022-08-05T15:32:59.462Z,28.70
2022-08-05T15:36:04.812Z,28.90
2022-08-05T15:40:42.629Z,28.70
2022-08-05T15:42:55.825Z,28.80
2022-08-05T15:45:59.778Z,28.60
2022-08-05T15:49:10.684Z,28.10
2022-08-05T15:52:29.678Z,28.20
2022-08-05T15:56:02.818Z,28.30
2022-08-05T15:58:57.370Z,28.40
